createdAt,value
2018-12-18T00:01:54.101Z,6.07
2018-12-18T00:04:22.157Z,6.53
2018-12-18T00:06:50.258Z,5.47
2018-12-18T00:09:18.322Z,5.63
2018-12-18T00:11:46.387Z,6.40
2018-12-18T00:14:14.463Z,5.20
2018-12-18T00:16:42.708Z,4.40
2018-12-18T00:19:10.758Z,5.07
2018-12-18T00:21:38.829Z,4.63
2018-12-18T00:24:06.904Z,5.00
2018-12-18T00:26:34.978Z,4.40
2018-12-18T00:29:03.110Z,5.20
2018-12-18T00:31:34.166Z,5.15
2018-12-18T00:34:02.387Z,4.10
2018-12-18T00:36:30.538Z,4.87
2018-12-18T00:38:58.591Z,4.15
2018-12-18T00:41:26.651Z,3.90
2018-12-18T00:43:54.753Z,3.60
2018-12-18T00:46:22.795Z,3.60
2018-12-18T00:48:50.847Z,3.87
2018-12-18T00:51:18.910Z,4.00
2018-12-18T00:53:46.962Z,4.00
2018-12-18T00:56:15.030Z,4.15
2018-12-18T00:58:44.299Z,4.27
2018-12-18T01:01:12.355Z,3.53
2018-12-18T01:03:40.407Z,3.72
2018-12-18T01:06:08.590Z,4.03
2018-12-18T01:08:36.642Z,3.43
2018-12-18T01:11:04.758Z,3.42
2018-12-18T01:13:32.806Z,3.60
2018-12-18T01:16:00.961Z,3.47
2018-12-18T01:18:29.010Z,3.47
2018-12-18T01:20:57.109Z,3.25
2018-12-18T01:23:25.434Z,3.60
2018-12-18T01:25:53.526Z,2.67
2018-12-18T01:28:21.587Z,2.37
2018-12-18T01:30:49.695Z,2.20
2018-12-18T01:33:17.760Z,2.63
2018-12-18T01:35:45.816Z,2.72
2018-12-18T01:38:13.961Z,2.50
2018-12-18T01:40:42.126Z,3.30
2018-12-18T01:43:10.195Z,2.80
2018-12-18T01:45:38.280Z,2.85
2018-12-18T01:48:06.338Z,2.23
2018-12-18T01:50:34.392Z,2.33
2018-12-18T01:53:02.574Z,2.57
2018-12-18T01:55:30.639Z,2.57
2018-12-18T01:57:58.694Z,2.40
2018-12-18T02:00:26.823Z,2.53
2018-12-18T02:02:54.951Z,2.73
2018-12-18T02:05:23.775Z,2.33
2018-12-18T02:07:51.903Z,2.70
2018-12-18T02:10:19.951Z,2.67
2018-12-18T02:12:48.007Z,2.87
2018-12-18T02:15:16.104Z,2.50
2018-12-18T02:17:44.161Z,2.70
2018-12-18T02:20:12.247Z,2.63
2018-12-18T02:22:40.341Z,2.67
2018-12-18T02:25:08.467Z,2.30
2018-12-18T02:27:36.601Z,2.57
2018-12-18T02:30:06.300Z,2.23
2018-12-18T02:32:34.447Z,3.17
2018-12-18T02:35:02.542Z,2.53
2018-12-18T02:37:30.685Z,2.80
2018-12-18T02:39:58.790Z,2.37
2018-12-18T02:42:26.920Z,2.15
2018-12-18T02:44:55.098Z,3.77
2018-12-18T02:47:24.110Z,2.30
2018-12-18T02:49:52.166Z,2.60
2018-12-18T02:52:20.222Z,2.75
2018-12-18T02:54:48.278Z,2.30
2018-12-18T02:57:16.335Z,2.43
2018-12-18T02:59:44.379Z,2.93
2018-12-18T03:02:12.471Z,2.13
2018-12-18T03:04:40.528Z,2.60
2018-12-18T03:07:08.661Z,1.97
2018-12-18T03:09:36.721Z,2.47
2018-12-18T03:12:04.888Z,2.10
2018-12-18T03:14:32.994Z,2.43
2018-12-18T03:17:01.122Z,2.40
2018-12-18T03:19:29.185Z,2.30
2018-12-18T03:21:57.239Z,1.97
2018-12-18T03:24:25.303Z,2.30
2018-12-18T03:26:53.346Z,2.12
2018-12-18T03:29:22.069Z,2.05
2018-12-18T03:31:51.958Z,2.20
2018-12-18T03:34:20.087Z,2.10
2018-12-18T03:36:48.153Z,2.07
2018-12-18T03:39:16.208Z,2.20
2018-12-18T03:41:44.386Z,2.07
2018-12-18T03:44:12.430Z,2.20
2018-12-18T03:46:40.630Z,2.30
2018-12-18T03:49:08.682Z,2.57
2018-12-18T03:51:36.735Z,2.03
2018-12-18T03:54:04.964Z,2.30
2018-12-18T03:56:33.086Z,1.97
2018-12-18T03:59:01.147Z,1.90
2018-12-18T04:01:29.203Z,1.90
2018-12-18T04:03:57.266Z,2.00
2018-12-18T04:06:25.318Z,1.98
2018-12-18T04:08:53.477Z,1.80
2018-12-18T04:11:21.710Z,2.00
2018-12-18T04:13:49.851Z,2.80
2018-12-18T04:16:17.931Z,2.40
2018-12-18T04:18:46.142Z,1.90
2018-12-18T04:21:14.204Z,2.17
2018-12-18T04:23:42.350Z,2.23
2018-12-18T04:26:10.446Z,1.90
2018-12-18T04:28:38.506Z,2.03
2018-12-18T04:31:06.607Z,2.10
2018-12-18T04:33:34.648Z,2.25
2018-12-18T04:36:02.702Z,2.67
2018-12-18T04:38:30.768Z,1.73
2018-12-18T04:40:58.824Z,1.87
2018-12-18T04:43:26.903Z,1.97
2018-12-18T04:45:54.964Z,2.10
2018-12-18T04:48:23.094Z,1.75
2018-12-18T04:50:51.146Z,1.70
2018-12-18T04:53:19.210Z,1.73
2018-12-18T04:55:47.621Z,1.77
2018-12-18T04:58:15.671Z,1.63
2018-12-18T05:00:43.810Z,1.40
2018-12-18T05:03:11.943Z,2.27
2018-12-18T05:05:40.025Z,1.80
2018-12-18T05:08:08.124Z,1.97
2018-12-18T05:10:36.182Z,2.20
2018-12-18T05:13:04.283Z,1.90
2018-12-18T05:15:32.330Z,1.93
2018-12-18T05:18:00.387Z,2.33
2018-12-18T05:20:28.523Z,1.83
2018-12-18T05:22:56.642Z,1.80
2018-12-18T05:25:24.785Z,1.60
2018-12-18T05:27:52.848Z,2.80
2018-12-18T05:30:20.898Z,1.80
2018-12-18T05:32:49.906Z,2.27
2018-12-18T05:35:17.981Z,2.02
2018-12-18T05:37:46.034Z,2.20
2018-12-18T05:40:14.080Z,2.40
2018-12-18T05:42:42.155Z,2.60
2018-12-18T05:45:10.230Z,2.43
2018-12-18T05:47:38.287Z,2.25
2018-12-18T05:50:07.026Z,2.23
2018-12-18T05:52:35.074Z,2.20
2018-12-18T05:55:03.228Z,2.15
2018-12-18T05:57:31.287Z,2.40
2018-12-18T05:59:59.478Z,2.13
2018-12-18T06:02:27.525Z,2.10
2018-12-18T06:04:55.662Z,2.77
2018-12-18T06:07:23.732Z,2.20
2018-12-18T06:09:51.873Z,2.30
2018-12-18T06:12:19.935Z,2.47
2018-12-18T06:14:48.010Z,2.70
2018-12-18T06:17:16.064Z,2.50
2018-12-18T06:19:44.306Z,2.67
2018-12-18T06:22:12.372Z,2.23
2018-12-18T06:24:40.435Z,2.33
2018-12-18T06:27:08.490Z,2.33
2018-12-18T06:29:36.563Z,2.10
2018-12-18T06:32:04.696Z,2.00
2018-12-18T06:34:32.828Z,2.13
2018-12-18T06:37:00.889Z,2.17
2018-12-18T06:39:29.469Z,2.42
2018-12-18T06:41:57.526Z,2.30
2018-12-18T06:44:25.678Z,2.27
2018-12-18T06:46:53.743Z,2.30
2018-12-18T06:49:21.833Z,2.50
2018-12-18T06:51:49.894Z,2.30
2018-12-18T06:54:18.006Z,2.50
2018-12-18T06:56:46.063Z,2.10
2018-12-18T06:59:14.242Z,2.27
2018-12-18T07:01:42.298Z,1.80
2018-12-18T07:04:10.367Z,1.83
2018-12-18T07:06:38.461Z,2.43
2018-12-18T07:09:08.594Z,2.30
2018-12-18T07:11:36.647Z,2.10
2018-12-18T07:14:04.738Z,2.70
2018-12-18T07:16:33.571Z,2.90
2018-12-18T07:19:01.733Z,2.90
2018-12-18T07:24:32.807Z,2.90
2018-12-18T07:27:00.875Z,3.95
2018-12-18T07:29:28.933Z,3.50
2018-12-18T07:31:59.127Z,4.17
2018-12-18T07:34:33.237Z,3.37
2018-12-18T07:36:57.211Z,3.50
2018-12-18T07:39:25.259Z,2.12
2018-12-18T07:41:53.401Z,2.10
2018-12-18T07:44:21.491Z,2.07
2018-12-18T07:46:49.522Z,2.00
2018-12-18T07:49:17.598Z,2.20
2018-12-18T07:51:45.738Z,2.23
2018-12-18T07:54:13.782Z,1.90
2018-12-18T07:56:42.130Z,1.70
2018-12-18T07:59:10.190Z,1.95
2018-12-18T08:01:38.322Z,2.30
2018-12-18T08:04:06.409Z,3.53
2018-12-18T08:06:34.550Z,3.63
2018-12-18T08:09:02.822Z,3.17
2018-12-18T08:11:30.989Z,3.30
2018-12-18T08:14:00.188Z,3.30
2018-12-18T08:16:28.337Z,5.53
2018-12-18T08:18:56.390Z,4.72
2018-12-18T08:21:24.439Z,4.80
2018-12-18T08:23:52.578Z,4.63
2018-12-18T08:26:20.630Z,5.05
2018-12-18T08:28:48.704Z,3.30
2018-12-18T08:31:16.834Z,3.40
2018-12-18T08:33:44.895Z,2.60
2018-12-18T08:36:12.965Z,3.60
2018-12-18T08:38:41.238Z,4.03
2018-12-18T08:41:09.354Z,3.87
2018-12-18T08:43:37.483Z,3.65
2018-12-18T08:46:10.227Z,2.98
2018-12-18T08:48:35.668Z,3.17
2018-12-18T08:51:03.727Z,3.80
2018-12-18T08:53:31.797Z,3.07
2018-12-18T08:56:00.625Z,2.80
2018-12-18T08:58:28.729Z,3.37
2018-12-18T09:00:56.791Z,3.10
2018-12-18T09:03:24.853Z,3.60
2018-12-18T09:05:52.908Z,3.70
2018-12-18T09:08:21.014Z,3.70
2018-12-18T09:10:49.154Z,3.15
2018-12-18T09:13:17.217Z,2.63
2018-12-18T09:15:50.894Z,3.03
2018-12-18T09:18:18.954Z,2.27
2018-12-18T09:20:47.014Z,2.20
2018-12-18T09:23:15.078Z,2.10
2018-12-18T09:25:43.255Z,1.93
2018-12-18T09:28:11.324Z,3.65
2018-12-18T09:36:35.230Z,3.50
2018-12-18T09:39:12.204Z,3.75
2018-12-18T09:41:40.744Z,3.83
2018-12-18T09:44:10.803Z,3.70
2018-12-18T09:46:38.895Z,3.13
2018-12-18T09:49:06.944Z,3.50
2018-12-18T09:51:35.008Z,3.73
2018-12-18T09:54:03.125Z,2.55
2018-12-18T09:56:33.110Z,3.70
2018-12-18T09:59:01.193Z,3.20
2018-12-18T10:01:29.320Z,2.80
2018-12-18T10:03:57.409Z,2.40
2018-12-18T10:06:25.516Z,2.70
2018-12-18T10:08:53.592Z,2.67
2018-12-18T10:11:21.658Z,2.70
2018-12-18T10:13:49.726Z,3.40
2018-12-18T10:16:17.807Z,2.40
2018-12-18T10:18:45.888Z,2.00
2018-12-18T10:21:14.052Z,2.50
2018-12-18T10:23:43.338Z,2.70
2018-12-18T10:26:11.472Z,2.20
2018-12-18T10:28:39.527Z,2.17
2018-12-18T10:31:07.593Z,1.60
2018-12-18T10:33:35.751Z,1.67
2018-12-18T10:36:03.877Z,1.70
2018-12-18T10:38:32.106Z,1.67
2018-12-18T10:41:01.307Z,2.43
2018-12-18T10:43:29.402Z,2.40
2018-12-18T10:45:57.457Z,1.80
2018-12-18T10:48:25.525Z,2.08
2018-12-18T10:50:53.615Z,2.05
2018-12-18T10:53:21.684Z,2.10
2018-12-18T10:55:49.742Z,2.00
2018-12-18T10:58:23.830Z,1.50
2018-12-18T11:00:53.711Z,3.10
2018-12-18T11:03:21.959Z,3.52
2018-12-18T11:05:50.024Z,4.17
2018-12-18T11:08:18.170Z,3.90
2018-12-18T11:10:46.352Z,2.70
2018-12-18T11:13:17.290Z,1.55
2018-12-18T11:15:45.558Z,1.42
2018-12-18T11:18:13.723Z,1.70
2018-12-18T11:20:41.904Z,1.40
2018-12-18T11:23:09.965Z,1.60
2018-12-18T11:25:38.323Z,1.10
2018-12-18T11:28:06.446Z,1.27
2018-12-18T11:30:34.592Z,1.32
2018-12-18T11:33:02.654Z,1.20
2018-12-18T11:35:30.808Z,1.07
2018-12-18T11:37:58.875Z,1.23
2018-12-18T11:40:26.967Z,1.83
2018-12-18T11:42:55.034Z,1.10
2018-12-18T11:45:23.139Z,1.05
2018-12-18T11:47:51.241Z,1.20
2018-12-18T11:50:20.357Z,1.44
2018-12-18T11:52:48.407Z,1.13
2018-12-18T11:55:16.469Z,1.60
2018-12-18T11:57:44.615Z,1.50
2018-12-18T12:00:13.946Z,1.40
2018-12-18T12:02:42.937Z,1.30
2018-12-18T12:05:11.298Z,1.30
2018-12-18T12:07:39.571Z,1.23
2018-12-18T12:10:07.793Z,1.30
2018-12-18T12:12:35.849Z,1.47
2018-12-18T12:15:05.132Z,1.80
2018-12-18T12:17:33.332Z,1.20
2018-12-18T12:20:01.400Z,1.27
2018-12-18T12:22:29.582Z,1.40
2018-12-18T12:24:57.692Z,1.13
2018-12-18T12:27:31.211Z,1.17
2018-12-18T12:29:59.275Z,1.70
2018-12-18T12:32:27.358Z,1.47
2018-12-18T12:34:55.438Z,1.87
2018-12-18T12:37:23.495Z,1.53
2018-12-18T12:39:51.598Z,1.30
2018-12-18T12:42:20.795Z,1.70
2018-12-18T12:44:48.871Z,1.57
2018-12-18T12:47:16.971Z,1.40
2018-12-18T12:49:45.065Z,1.67
2018-12-18T12:52:13.310Z,1.50
2018-12-18T12:54:41.393Z,1.50
2018-12-18T12:57:09.551Z,1.50
2018-12-18T12:59:38.758Z,1.63
2018-12-18T13:02:06.870Z,1.80
2018-12-18T13:04:35.015Z,1.75
2018-12-18T13:07:03.122Z,1.50
2018-12-18T13:09:31.277Z,1.47
2018-12-18T13:11:59.342Z,1.73
2018-12-18T13:14:27.414Z,1.50
2018-12-18T13:16:55.487Z,1.60
2018-12-18T13:19:23.560Z,1.42
2018-12-18T13:21:51.627Z,1.60
2018-12-18T13:24:19.832Z,1.67
2018-12-18T13:26:47.902Z,1.90
2018-12-18T13:29:15.958Z,1.92
2018-12-18T13:31:44.150Z,1.80
2018-12-18T13:34:12.214Z,1.93
2018-12-18T13:36:43.129Z,1.90
2018-12-18T13:39:10.327Z,2.17
2018-12-18T13:41:39.186Z,1.90
2018-12-18T13:44:07.259Z,2.20
2018-12-18T13:46:35.317Z,2.30
2018-12-18T13:49:03.424Z,2.17
2018-12-18T13:51:31.486Z,2.00
2018-12-18T13:53:59.542Z,1.77
2018-12-18T13:56:27.610Z,2.02
2018-12-18T13:58:55.682Z,2.30
2018-12-18T14:01:23.980Z,2.33
2018-12-18T14:03:52.039Z,2.60
2018-12-18T14:06:21.235Z,2.10
2018-12-18T14:08:49.286Z,2.00
2018-12-18T14:11:17.412Z,2.45
2018-12-18T14:13:45.486Z,2.50
2018-12-18T14:16:13.564Z,2.30
2018-12-18T14:18:41.687Z,2.13
2018-12-18T14:21:09.740Z,2.40
2018-12-18T14:23:37.826Z,2.83
2018-12-18T14:26:07.751Z,3.10
2018-12-18T14:28:35.834Z,2.45
2018-12-18T14:31:03.902Z,3.07
2018-12-18T14:33:31.983Z,2.87
2018-12-18T14:36:00.050Z,2.70
2018-12-18T14:38:28.186Z,2.77
2018-12-18T14:40:56.280Z,3.10
2018-12-18T14:43:34.587Z,2.63
2018-12-18T14:46:04.181Z,2.10
2018-12-18T14:48:32.342Z,2.37
2018-12-18T14:54:15.097Z,2.37
2018-12-18T14:56:46.854Z,3.13
2018-12-18T14:59:17.356Z,2.60
2018-12-18T15:01:45.497Z,2.30
2018-12-18T15:04:13.596Z,2.57
2018-12-18T15:06:42.968Z,2.60
2018-12-18T15:09:13.054Z,2.23
2018-12-18T15:11:41.139Z,2.65
2018-12-18T15:14:09.292Z,3.40
2018-12-18T15:16:39.707Z,2.80
2018-12-18T15:19:07.775Z,3.10
2018-12-18T15:21:35.892Z,2.92
2018-12-18T15:24:22.082Z,3.61
2018-12-18T15:26:50.207Z,3.17
2018-12-18T15:29:19.299Z,3.65
2018-12-18T15:31:47.411Z,3.77
2018-12-18T15:34:15.499Z,3.73
2018-12-18T15:36:43.677Z,3.77
2018-12-18T15:39:11.754Z,4.83
2018-12-18T15:41:39.816Z,4.17
2018-12-18T15:44:07.908Z,3.40
2018-12-18T15:46:35.983Z,2.70
2018-12-18T15:49:04.111Z,2.80
2018-12-18T15:51:32.179Z,3.00
2018-12-18T15:54:00.353Z,2.67
2018-12-18T15:56:28.533Z,2.70
2018-12-18T15:58:56.623Z,2.63
2018-12-18T16:01:40.785Z,3.13
2018-12-18T16:04:08.855Z,2.63
2018-12-18T16:06:36.919Z,2.63
2018-12-18T16:09:08.155Z,3.53
2018-12-18T16:11:36.234Z,3.63
2018-12-18T16:14:04.470Z,2.93
2018-12-18T16:16:32.608Z,2.73
2018-12-18T16:19:00.659Z,2.60
2018-12-18T16:21:28.819Z,2.77
2018-12-18T16:23:56.916Z,2.73
2018-12-18T16:26:25.123Z,2.90
2018-12-18T16:28:53.971Z,3.62
2018-12-18T16:31:22.146Z,3.80
2018-12-18T16:33:50.222Z,3.07
2018-12-18T16:36:18.287Z,3.40
2018-12-18T16:38:46.351Z,3.30
2018-12-18T16:41:15.310Z,3.40
2018-12-18T16:43:43.357Z,2.77
2018-12-18T16:46:12.529Z,3.00
2018-12-18T16:48:40.631Z,3.35
2018-12-18T17:03:26.435Z,2.95
2018-12-18T17:06:07.812Z,3.37
2018-12-18T17:08:36.929Z,3.20
2018-12-18T17:11:24.661Z,2.90
2018-12-18T17:13:54.686Z,2.77
2018-12-18T17:16:23.109Z,3.20
2018-12-18T17:21:58.197Z,2.77
2018-12-18T17:24:26.246Z,3.27
2018-12-18T17:26:54.325Z,3.23
2018-12-18T17:29:22.424Z,3.40
2018-12-18T17:31:50.488Z,2.83
2018-12-18T17:34:19.754Z,3.80
2018-12-18T17:36:47.852Z,3.10
2018-12-18T17:39:15.954Z,3.03
2018-12-18T17:41:44.034Z,3.10
2018-12-18T17:44:12.162Z,3.03
2018-12-18T17:46:40.225Z,3.07
2018-12-18T17:49:08.282Z,3.10
2018-12-18T17:51:36.417Z,3.00
2018-12-18T17:54:04.512Z,2.90
2018-12-18T17:56:32.562Z,2.83
2018-12-18T17:59:00.610Z,3.50
2018-12-18T18:01:28.714Z,3.40
2018-12-18T18:03:56.766Z,2.90
2018-12-18T18:06:24.823Z,3.25
2018-12-18T18:08:52.920Z,3.43
2018-12-18T18:11:21.006Z,3.80
2018-12-18T18:13:49.071Z,3.17
2018-12-18T18:16:17.955Z,2.95
2018-12-18T18:18:46.005Z,2.67
2018-12-18T18:21:14.054Z,3.17
2018-12-18T18:23:42.116Z,3.03
2018-12-18T18:26:11.998Z,2.83
2018-12-18T18:28:40.063Z,3.73
2018-12-18T18:31:08.155Z,2.87
2018-12-18T18:33:37.331Z,3.05
2018-12-18T18:36:05.379Z,3.13
2018-12-18T18:38:33.435Z,3.60
2018-12-18T18:41:01.534Z,3.20
2018-12-18T18:43:29.609Z,3.30
2018-12-18T18:45:57.698Z,3.13
2018-12-18T18:48:25.759Z,2.97
2018-12-18T18:50:53.905Z,2.73
2018-12-18T18:53:22.055Z,3.60
2018-12-18T18:55:50.197Z,3.20
2018-12-18T18:58:19.474Z,3.40
2018-12-18T19:00:47.519Z,3.30
2018-12-18T19:03:15.599Z,3.43
2018-12-18T19:05:43.718Z,3.73
2018-12-18T19:08:11.810Z,3.83
2018-12-18T19:10:39.947Z,3.20
2018-12-18T19:13:08.006Z,4.12
2018-12-18T19:15:36.110Z,3.77
2018-12-18T19:18:04.183Z,4.03
2018-12-18T19:20:32.268Z,3.57
2018-12-18T19:23:00.327Z,3.37
2018-12-18T19:25:28.370Z,4.10
2018-12-18T19:27:56.456Z,4.40
2018-12-18T19:30:24.499Z,3.80
2018-12-18T19:32:52.855Z,3.98
2018-12-18T19:35:20.902Z,4.05
2018-12-18T19:37:48.954Z,4.00
2018-12-18T19:40:17.215Z,4.33
2018-12-18T19:42:45.347Z,3.97
2018-12-18T19:45:13.417Z,4.85
2018-12-18T19:47:41.558Z,4.17
2018-12-18T19:50:09.731Z,4.37
2018-12-18T19:52:37.792Z,4.40
2018-12-18T19:55:05.919Z,4.92
2018-12-18T19:57:33.962Z,4.40
2018-12-18T20:00:02.024Z,4.17
2018-12-18T20:02:30.162Z,5.53
2018-12-18T20:04:59.048Z,4.83
2018-12-18T20:07:27.127Z,4.40
2018-12-18T20:09:55.195Z,4.60
2018-12-18T20:12:23.676Z,4.90
2018-12-18T20:14:51.778Z,5.30
2018-12-18T20:17:20.045Z,4.73
2018-12-18T20:19:48.469Z,4.73
2018-12-18T20:22:16.514Z,4.83
2018-12-18T20:24:44.701Z,4.50
2018-12-18T20:27:12.751Z,4.80
2018-12-18T20:29:41.038Z,5.17
2018-12-18T20:32:09.093Z,4.97
2018-12-18T20:34:37.226Z,5.00
2018-12-18T20:37:05.315Z,4.75
2018-12-18T20:39:33.492Z,4.97
2018-12-18T20:42:01.538Z,4.97
2018-12-18T20:44:29.627Z,4.30
2018-12-18T20:46:57.811Z,3.43
2018-12-18T20:49:25.896Z,4.40
2018-12-18T20:51:53.946Z,3.83
2018-12-18T20:57:23.564Z,3.80
2018-12-18T20:59:52.839Z,4.17
2018-12-18T21:02:21.002Z,3.80
2018-12-18T21:04:49.153Z,4.17
2018-12-18T21:07:17.429Z,3.87
2018-12-18T21:09:45.586Z,4.37
2018-12-18T21:12:14.420Z,4.08
2018-12-18T21:14:42.518Z,3.90
2018-12-18T21:17:14.507Z,4.03
2018-12-18T21:19:42.871Z,3.67
2018-12-18T21:22:11.127Z,3.97
2018-12-18T21:24:39.281Z,4.00
2018-12-18T21:27:08.325Z,3.43
2018-12-18T21:29:36.441Z,3.43
2018-12-18T21:32:04.611Z,3.40
2018-12-18T21:34:33.308Z,3.45
2018-12-18T21:37:16.523Z,3.40
2018-12-18T21:39:45.498Z,3.43
2018-12-18T21:42:13.610Z,3.73
2018-12-18T21:44:41.825Z,3.67
2018-12-18T21:47:09.933Z,3.27
2018-12-18T21:49:39.255Z,3.73
2018-12-18T21:52:08.443Z,3.77
2018-12-18T21:54:36.519Z,3.63
2018-12-18T21:57:04.585Z,3.87
2018-12-18T21:59:33.597Z,4.17
2018-12-18T22:02:01.828Z,4.23
2018-12-18T22:04:30.230Z,3.47
2018-12-18T22:06:58.344Z,3.83
2018-12-18T22:09:26.456Z,4.08
2018-12-18T22:11:54.582Z,4.43
2018-12-18T22:14:22.700Z,4.37
2018-12-18T22:16:51.204Z,3.83
2018-12-18T22:19:21.756Z,4.30
2018-12-18T22:21:49.849Z,4.00
2018-12-18T22:24:18.037Z,4.40
2018-12-18T22:26:46.272Z,4.10
2018-12-18T22:29:14.517Z,4.57
2018-12-18T22:31:50.811Z,4.13
2018-12-18T22:34:19.385Z,4.40
2018-12-18T22:36:48.093Z,4.37
2018-12-18T22:39:18.464Z,4.20
2018-12-18T22:41:59.359Z,3.90
2018-12-18T22:44:35.264Z,3.87
2018-12-18T22:47:14.295Z,4.57
2018-12-18T22:49:43.125Z,3.87
2018-12-18T22:52:12.234Z,4.10
2018-12-18T22:54:42.208Z,3.62
2018-12-18T22:57:10.377Z,3.40
2018-12-18T23:02:36.362Z,3.13
2018-12-18T23:05:04.946Z,3.37
2018-12-18T23:07:33.005Z,3.87
2018-12-18T23:10:01.086Z,4.07
2018-12-18T23:12:29.128Z,3.65
2018-12-18T23:14:57.754Z,3.98
2018-12-18T23:17:25.838Z,3.77
2018-12-18T23:19:53.894Z,3.00
2018-12-18T23:22:21.951Z,2.23
2018-12-18T23:24:50.031Z,2.20
2018-12-18T23:27:18.094Z,2.10
2018-12-18T23:29:46.171Z,2.23
2018-12-18T23:32:14.214Z,2.10
2018-12-18T23:34:42.266Z,1.90
2018-12-18T23:37:10.364Z,1.97
2018-12-18T23:39:38.461Z,2.27
2018-12-18T23:42:06.568Z,2.00
2018-12-18T23:47:37.502Z,2.13
2018-12-18T23:50:06.270Z,2.17
2018-12-18T23:52:34.362Z,1.90
2018-12-18T23:55:02.474Z,1.97
2018-12-18T23:57:30.539Z,1.87
2018-12-18T23:59:58.583Z,2.10
